createdAt,value
2023-06-07T00:00:56.669Z,55.25
2023-06-07T00:03:23.230Z,55.96
2023-06-07T00:05:49.968Z,55.49
2023-06-07T00:08:16.372Z,55.53
2023-06-07T00:10:43.155Z,55.96
2023-06-07T00:13:10.072Z,55.34
2023-06-07T00:15:37.645Z,55.07
2023-06-07T00:18:04.262Z,54.69
2023-06-07T00:20:30.755Z,55.11
2023-06-07T00:22:57.275Z,55.02
2023-06-07T00:25:23.661Z,54.74
2023-06-07T00:27:50.096Z,54.48
2023-06-07T00:30:16.596Z,54.42
2023-06-07T00:32:43.193Z,54.35
2023-06-07T00:35:09.681Z,54.26
2023-06-07T00:37:36.095Z,54.21
2023-06-07T00:40:02.827Z,54.20
2023-06-07T00:42:29.607Z,54.30
2023-06-07T00:44:56.189Z,54.24
2023-06-07T00:47:22.575Z,54.02
2023-06-07T00:49:49.402Z,54.23
2023-06-07T00:52:16.101Z,53.90
2023-06-07T00:54:43.553Z,54.08
2023-06-07T00:57:10.005Z,53.97
2023-06-07T00:59:36.465Z,54.01
2023-06-07T01:02:03.212Z,54.18
2023-06-07T01:04:29.682Z,54.17
2023-06-07T01:06:56.146Z,53.84
2023-06-07T01:09:22.550Z,53.99
2023-06-07T01:11:48.972Z,54.17
2023-06-07T01:14:15.371Z,54.10
2023-06-07T01:16:41.893Z,54.32
2023-06-07T01:19:08.449Z,54.33
2023-06-07T01:21:36.838Z,54.26
2023-06-07T01:24:03.349Z,54.31
2023-06-07T01:26:29.810Z,54.21
2023-06-07T01:28:56.228Z,54.33
2023-06-07T01:31:22.663Z,54.04
2023-06-07T01:33:49.334Z,54.20
2023-06-07T01:36:16.047Z,54.53
2023-06-07T01:38:42.493Z,54.13
2023-06-07T01:41:09.045Z,54.06
2023-06-07T01:43:35.497Z,54.19
2023-06-07T01:46:02.022Z,54.13
2023-06-07T01:48:28.726Z,53.83
2023-06-07T01:50:55.166Z,54.50
2023-06-07T01:53:21.681Z,54.41
2023-06-07T01:55:48.212Z,53.98
2023-06-07T01:58:15.953Z,54.32
2023-06-07T02:00:42.376Z,54.18
2023-06-07T02:03:08.925Z,54.27
2023-06-07T02:05:35.402Z,53.96
2023-06-07T02:08:01.774Z,54.02
2023-06-07T02:10:28.180Z,54.21
2023-06-07T02:12:54.668Z,54.04
2023-06-07T02:15:28.390Z,54.17
2023-06-07T02:17:54.926Z,53.96
2023-06-07T02:20:21.418Z,53.79
2023-06-07T02:22:47.904Z,53.87
2023-06-07T02:25:14.277Z,54.70
2023-06-07T02:27:40.726Z,54.87
2023-06-07T02:30:07.271Z,55.36
2023-06-07T02:32:34.012Z,55.55
2023-06-07T02:35:00.573Z,54.64
2023-06-07T02:37:26.984Z,54.17
2023-06-07T02:39:53.423Z,54.04
2023-06-07T02:42:19.796Z,54.06
2023-06-07T02:44:46.269Z,53.73
2023-06-07T02:47:12.777Z,54.26
2023-06-07T02:49:39.485Z,54.41
2023-06-07T02:52:06.333Z,54.61
2023-06-07T02:54:32.708Z,54.25
2023-06-07T02:56:59.260Z,54.38
2023-06-07T02:59:25.692Z,54.46
2023-06-07T03:01:53.352Z,54.32
2023-06-07T03:04:19.837Z,54.49
2023-06-07T03:06:46.366Z,55.11
2023-06-07T03:09:12.753Z,55.82
2023-06-07T03:11:39.212Z,56.26
2023-06-07T03:14:05.642Z,56.70
2023-06-07T03:16:32.000Z,56.51
2023-06-07T03:18:58.428Z,56.87
2023-06-07T03:21:24.824Z,57.24
2023-06-07T03:23:51.608Z,56.91
2023-06-07T03:26:18.105Z,56.20
2023-06-07T03:28:44.575Z,56.63
2023-06-07T03:31:11.058Z,57.00
2023-06-07T03:33:37.606Z,56.40
2023-06-07T03:36:04.147Z,57.15
2023-06-07T03:38:30.500Z,57.33
2023-06-07T03:40:57.333Z,56.98
2023-06-07T03:43:23.877Z,56.67
2023-06-07T03:45:50.370Z,56.50
2023-06-07T03:48:16.912Z,56.15
2023-06-07T03:50:43.357Z,56.36
2023-06-07T03:53:09.767Z,55.87
2023-06-07T03:55:36.202Z,55.72
2023-06-07T03:58:02.594Z,55.81
2023-06-07T04:00:30.389Z,55.97
2023-06-07T04:02:57.025Z,56.16
2023-06-07T04:05:27.022Z,56.23
2023-06-07T04:07:54.379Z,56.40
2023-06-07T04:10:20.854Z,56.97
2023-06-07T04:12:47.294Z,56.54
2023-06-07T04:15:13.718Z,55.77
2023-06-07T04:17:40.354Z,56.34
2023-06-07T04:20:06.782Z,56.64
2023-06-07T04:22:33.203Z,57.11
2023-06-07T04:25:00.321Z,56.87
2023-06-07T04:27:26.726Z,56.59
2023-06-07T04:29:53.226Z,55.89
2023-06-07T04:32:19.825Z,56.71
2023-06-07T04:34:46.603Z,57.25
2023-06-07T04:37:13.063Z,57.03
2023-06-07T04:39:39.406Z,56.73
2023-06-07T04:42:05.884Z,56.56
2023-06-07T04:44:32.390Z,56.29
2023-06-07T04:47:04.808Z,56.67
2023-06-07T04:49:34.800Z,56.04
2023-06-07T04:52:01.273Z,56.32
2023-06-07T04:54:28.012Z,56.88
2023-06-07T04:56:54.415Z,56.88
2023-06-07T04:59:21.020Z,56.90
2023-06-07T05:01:47.494Z,56.36
2023-06-07T05:04:13.958Z,56.31
2023-06-07T05:06:40.376Z,57.17
2023-06-07T05:09:06.884Z,57.34
2023-06-07T05:11:33.289Z,57.06
2023-06-07T05:13:59.688Z,57.58
2023-06-07T05:16:26.386Z,57.59
2023-06-07T05:18:52.905Z,57.19
2023-06-07T05:21:19.382Z,57.14
2023-06-07T05:23:46.205Z,57.69
2023-06-07T05:26:13.055Z,57.71
2023-06-07T05:28:39.536Z,56.71
2023-06-07T05:31:10.390Z,58.21
2023-06-07T05:33:41.005Z,58.35
2023-06-07T05:36:07.385Z,58.35
2023-06-07T05:38:34.466Z,57.06
2023-06-07T05:41:00.867Z,56.98
2023-06-07T05:43:27.357Z,56.62
2023-06-07T05:45:53.804Z,56.62
2023-06-07T05:48:20.173Z,56.62
2023-06-07T05:50:48.775Z,56.34
2023-06-07T05:53:15.232Z,56.40
2023-06-07T05:55:41.684Z,56.51
2023-06-07T05:58:08.119Z,56.68
2023-06-07T06:00:34.542Z,56.58
2023-06-07T06:03:03.357Z,56.20
2023-06-07T06:05:30.280Z,55.95
2023-06-07T06:07:56.764Z,55.93
2023-06-07T06:10:23.124Z,56.99
2023-06-07T06:12:49.595Z,55.66
2023-06-07T06:15:16.063Z,55.12
2023-06-07T06:17:42.687Z,56.13
2023-06-07T06:20:09.127Z,56.11
2023-06-07T06:22:35.507Z,55.41
2023-06-07T06:25:01.971Z,56.99
2023-06-07T06:27:28.427Z,56.06
2023-06-07T06:29:54.883Z,55.26
2023-06-07T06:32:23.423Z,55.04
2023-06-07T06:34:50.022Z,54.42
2023-06-07T06:37:16.477Z,53.91
2023-06-07T06:39:42.920Z,53.62
2023-06-07T06:42:10.506Z,53.80
2023-06-07T06:44:37.226Z,53.73
2023-06-07T06:47:04.184Z,54.28
2023-06-07T06:49:30.691Z,53.23
2023-06-07T06:51:57.173Z,53.79
2023-06-07T06:54:23.793Z,53.76
2023-06-07T06:56:50.204Z,54.75
2023-06-07T06:59:16.626Z,54.90
2023-06-07T07:01:43.145Z,54.10
2023-06-07T07:04:09.683Z,53.36
2023-06-07T07:06:36.638Z,53.14
2023-06-07T07:09:03.091Z,52.75
2023-06-07T07:11:31.700Z,52.94
2023-06-07T07:13:58.374Z,52.58
2023-06-07T07:16:25.072Z,53.44
2023-06-07T07:18:51.504Z,52.61
2023-06-07T07:21:17.919Z,52.06
2023-06-07T07:23:44.457Z,51.59
2023-06-07T07:26:10.895Z,52.40
2023-06-07T07:28:37.285Z,52.21
2023-06-07T07:31:03.768Z,52.40
2023-06-07T07:33:30.188Z,52.20
2023-06-07T07:35:56.839Z,54.13
2023-06-07T07:38:23.275Z,53.30
2023-06-07T07:40:49.729Z,53.21
2023-06-07T07:43:18.889Z,52.49
2023-06-07T07:45:45.434Z,52.37
2023-06-07T07:48:12.964Z,53.20
2023-06-07T07:50:39.447Z,52.23
2023-06-07T07:53:05.881Z,51.76
2023-06-07T07:55:32.320Z,52.33
2023-06-07T07:57:58.714Z,52.21
2023-06-07T08:00:25.340Z,53.05
2023-06-07T08:02:51.811Z,55.06
2023-06-07T08:05:18.558Z,54.75
2023-06-07T08:07:45.314Z,53.98
2023-06-07T08:10:11.756Z,53.00
2023-06-07T08:12:38.177Z,53.68
2023-06-07T08:15:04.615Z,54.41
2023-06-07T08:17:31.255Z,55.95
2023-06-07T08:19:58.671Z,55.28
2023-06-07T08:22:25.345Z,54.05
2023-06-07T08:24:51.737Z,55.43
2023-06-07T08:27:18.144Z,55.46
2023-06-07T08:29:44.738Z,54.26
2023-06-07T08:32:11.507Z,54.37
2023-06-07T08:34:37.940Z,55.07
2023-06-07T08:37:04.510Z,54.92
2023-06-07T08:39:30.972Z,54.04
2023-06-07T08:41:57.382Z,54.10
2023-06-07T08:44:23.831Z,53.42
2023-06-07T08:46:50.486Z,53.88
2023-06-07T08:49:17.045Z,53.25
2023-06-07T08:51:43.561Z,53.19
2023-06-07T08:54:10.045Z,54.06
2023-06-07T08:56:36.668Z,54.02
2023-06-07T08:59:03.088Z,52.98
2023-06-07T09:01:32.201Z,52.52
2023-06-07T09:03:59.074Z,52.58
2023-06-07T09:06:25.553Z,53.27
2023-06-07T09:08:52.107Z,52.99
2023-06-07T09:11:18.724Z,53.21
2023-06-07T09:13:45.151Z,53.07
2023-06-07T09:16:12.073Z,52.53
2023-06-07T09:18:38.596Z,52.57
2023-06-07T09:21:05.298Z,52.51
2023-06-07T09:23:32.148Z,52.69
2023-06-07T09:25:58.655Z,52.90
2023-06-07T09:28:25.131Z,52.21
2023-06-07T09:30:51.545Z,51.75
2023-06-07T09:33:18.087Z,52.59
2023-06-07T09:35:44.541Z,52.15
2023-06-07T09:38:11.100Z,52.58
2023-06-07T09:40:37.694Z,51.78
2023-06-07T09:43:04.290Z,52.02
2023-06-07T09:45:31.081Z,52.72
2023-06-07T09:47:57.633Z,51.01
2023-06-07T09:50:24.076Z,51.87
2023-06-07T09:52:50.811Z,52.84
2023-06-07T09:55:19.162Z,52.05
2023-06-07T09:57:46.947Z,52.14
2023-06-07T10:00:13.351Z,52.31
2023-06-07T10:02:39.841Z,52.24
2023-06-07T10:05:06.644Z,51.19
2023-06-07T10:07:33.511Z,51.43
2023-06-07T10:10:00.001Z,52.63
2023-06-07T10:12:26.725Z,52.10
2023-06-07T10:14:53.486Z,50.38
2023-06-07T10:17:20.104Z,50.07
2023-06-07T10:19:46.745Z,50.27
2023-06-07T10:22:13.169Z,50.35
2023-06-07T10:24:39.570Z,50.71
2023-06-07T10:27:06.009Z,49.91
2023-06-07T10:29:32.377Z,50.61
2023-06-07T10:31:59.233Z,50.56
2023-06-07T10:34:26.086Z,49.06
2023-06-07T10:36:52.703Z,49.65
2023-06-07T10:39:19.729Z,50.24
2023-06-07T10:41:46.201Z,51.44
2023-06-07T10:44:12.776Z,51.87
2023-06-07T10:46:39.412Z,50.79
2023-06-07T10:49:06.954Z,51.81
2023-06-07T10:51:33.415Z,52.63
2023-06-07T10:54:00.141Z,52.31
2023-06-07T10:56:26.690Z,51.43
2023-06-07T10:58:53.110Z,50.59
2023-06-07T11:01:19.876Z,50.46
2023-06-07T11:03:46.654Z,51.33
2023-06-07T11:06:13.135Z,51.07
2023-06-07T11:08:39.625Z,50.24
2023-06-07T11:11:06.309Z,49.88
2023-06-07T11:13:33.061Z,49.66
2023-06-07T11:15:59.637Z,48.50
2023-06-07T11:18:26.419Z,47.87
2023-06-07T11:20:53.707Z,46.67
2023-06-07T11:23:20.277Z,46.19
2023-06-07T11:25:46.991Z,48.66
2023-06-07T11:28:13.378Z,49.24
2023-06-07T11:30:55.214Z,48.18
2023-06-07T11:33:21.857Z,47.53
2023-06-07T11:35:48.498Z,46.64
2023-06-07T11:38:15.103Z,46.16
2023-06-07T11:40:41.569Z,46.19
2023-06-07T11:43:08.104Z,45.70
2023-06-07T11:45:34.760Z,45.32
2023-06-07T11:48:01.234Z,46.04
2023-06-07T11:50:27.748Z,43.73
2023-06-07T11:52:54.189Z,44.25
2023-06-07T11:55:20.593Z,44.55
2023-06-07T11:57:47.003Z,44.13
2023-06-07T12:00:13.361Z,45.23
2023-06-07T12:02:40.734Z,44.34
2023-06-07T12:05:07.116Z,44.24
2023-06-07T12:07:33.558Z,45.01
2023-06-07T12:10:00.272Z,44.42
2023-06-07T12:12:31.187Z,44.14
2023-06-07T12:14:57.863Z,43.71
2023-06-07T12:17:24.516Z,43.24
2023-06-07T12:19:51.327Z,43.27
2023-06-07T12:22:17.849Z,42.13
2023-06-07T12:24:44.263Z,42.68
2023-06-07T12:27:10.750Z,43.65
2023-06-07T12:29:37.212Z,43.87
2023-06-07T12:32:03.781Z,44.00
2023-06-07T12:34:30.269Z,42.43
2023-06-07T12:36:56.840Z,42.38
2023-06-07T12:39:23.565Z,41.58
2023-06-07T12:41:50.051Z,41.79
2023-06-07T12:44:16.540Z,41.62
2023-06-07T12:46:43.112Z,41.05
2023-06-07T12:49:09.728Z,41.13
2023-06-07T12:51:36.182Z,41.08
2023-06-07T12:54:02.724Z,40.80
2023-06-07T12:56:29.212Z,40.30
2023-06-07T12:58:55.756Z,40.58
2023-06-07T13:01:22.296Z,39.81
2023-06-07T13:03:48.875Z,40.21
2023-06-07T13:06:15.615Z,40.84
2023-06-07T13:08:42.169Z,40.23
2023-06-07T13:11:08.612Z,38.73
2023-06-07T13:13:35.056Z,39.90
2023-06-07T13:16:03.482Z,39.09
2023-06-07T13:18:30.134Z,40.04
2023-06-07T13:20:56.787Z,40.63
2023-06-07T13:23:23.149Z,40.15
2023-06-07T13:25:50.044Z,38.04
2023-06-07T13:28:18.505Z,38.71
2023-06-07T13:30:46.958Z,38.75
2023-06-07T13:33:13.494Z,38.40
2023-06-07T13:35:40.127Z,37.99
2023-06-07T13:38:06.491Z,37.14
2023-06-07T13:40:33.038Z,38.28
2023-06-07T13:42:59.511Z,39.45
2023-06-07T13:45:26.119Z,40.56
2023-06-07T13:47:52.657Z,40.11
2023-06-07T13:50:19.198Z,39.94
2023-06-07T13:52:45.724Z,39.92
2023-06-07T13:55:12.309Z,40.58
2023-06-07T13:57:38.706Z,40.22
2023-06-07T14:00:05.846Z,40.34
2023-06-07T14:02:32.678Z,40.14
2023-06-07T14:05:02.161Z,39.30
2023-06-07T14:07:29.433Z,39.83
2023-06-07T14:09:55.876Z,39.82
2023-06-07T14:12:22.394Z,40.62
2023-06-07T14:14:49.097Z,40.28
2023-06-07T14:17:15.513Z,39.94
2023-06-07T14:19:41.939Z,38.91
2023-06-07T14:22:08.384Z,39.23
2023-06-07T14:24:35.022Z,38.06
2023-06-07T14:27:01.530Z,38.79
2023-06-07T14:29:28.481Z,39.58
2023-06-07T14:31:54.874Z,39.62
2023-06-07T14:34:21.359Z,39.56
2023-06-07T14:36:47.897Z,38.46
2023-06-07T14:39:14.365Z,40.99
2023-06-07T14:41:40.787Z,42.33
2023-06-07T14:44:07.203Z,42.17
2023-06-07T14:46:33.639Z,42.19
2023-06-07T14:49:00.035Z,41.65
2023-06-07T14:51:27.248Z,42.67
2023-06-07T14:53:53.725Z,43.03
2023-06-07T14:56:20.625Z,43.20
2023-06-07T14:58:47.226Z,42.13
2023-06-07T15:01:13.919Z,42.89
2023-06-07T15:03:40.591Z,42.43
2023-06-07T15:06:07.059Z,42.57
2023-06-07T15:08:33.432Z,42.12
2023-06-07T15:10:59.869Z,41.93
2023-06-07T15:13:26.292Z,41.69
2023-06-07T15:15:52.878Z,41.52
2023-06-07T15:18:19.476Z,41.97
2023-06-07T15:20:45.876Z,41.88
2023-06-07T15:23:12.534Z,41.34
2023-06-07T15:25:39.056Z,41.42
2023-06-07T15:28:05.529Z,41.11
2023-06-07T15:30:31.933Z,41.16
2023-06-07T15:32:58.452Z,41.22
2023-06-07T15:35:24.915Z,41.31
2023-06-07T15:37:51.303Z,40.07
2023-06-07T15:40:18.734Z,39.45
2023-06-07T15:42:45.142Z,39.08
2023-06-07T15:45:11.608Z,39.35
2023-06-07T15:47:38.076Z,39.19
2023-06-07T15:50:05.256Z,38.43
2023-06-07T15:52:32.034Z,37.86
2023-06-07T15:54:58.573Z,38.25
2023-06-07T15:57:25.081Z,38.64
2023-06-07T15:59:51.486Z,38.35
2023-06-07T16:02:17.962Z,37.08
2023-06-07T16:04:44.636Z,37.51
2023-06-07T16:07:11.091Z,37.74
2023-06-07T16:09:37.488Z,37.79
2023-06-07T16:12:03.914Z,38.33
2023-06-07T16:14:30.492Z,37.97
2023-06-07T16:16:57.019Z,38.32
2023-06-07T16:19:31.083Z,38.68
2023-06-07T16:21:57.530Z,39.33
2023-06-07T16:24:24.308Z,39.29
2023-06-07T16:26:50.697Z,39.77
2023-06-07T16:29:17.119Z,39.36
2023-06-07T16:31:43.625Z,40.11
2023-06-07T16:34:10.122Z,40.25
2023-06-07T16:36:36.584Z,39.77
2023-06-07T16:39:03.016Z,40.26
2023-06-07T16:41:29.457Z,40.22
2023-06-07T16:43:55.965Z,40.68
2023-06-07T16:46:22.522Z,40.59
2023-06-07T16:48:49.031Z,40.87
2023-06-07T16:51:15.468Z,40.59
2023-06-07T16:53:41.897Z,40.56
2023-06-07T16:56:08.296Z,40.78
2023-06-07T16:58:34.685Z,40.56
2023-06-07T17:01:01.131Z,41.22
2023-06-07T17:03:27.994Z,41.40
2023-06-07T17:05:54.624Z,41.26
2023-06-07T17:08:21.061Z,41.75
2023-06-07T17:10:47.468Z,41.46
2023-06-07T17:13:13.856Z,41.25
2023-06-07T17:15:40.295Z,41.04
2023-06-07T17:18:06.773Z,41.05
2023-06-07T17:20:33.256Z,40.64
2023-06-07T17:22:59.803Z,40.89
2023-06-07T17:25:26.372Z,40.70
2023-06-07T17:27:52.788Z,40.54
2023-06-07T17:30:21.379Z,40.18
2023-06-07T17:32:47.804Z,40.52
2023-06-07T17:35:14.376Z,40.96
2023-06-07T17:37:40.851Z,40.64
2023-06-07T17:40:07.853Z,40.37
2023-06-07T17:42:34.531Z,40.50
2023-06-07T17:45:01.028Z,40.52
2023-06-07T17:47:27.490Z,39.90
2023-06-07T17:49:54.084Z,40.37
2023-06-07T17:52:22.996Z,40.48
2023-06-07T17:54:50.262Z,40.08
2023-06-07T17:57:16.997Z,39.83
2023-06-07T17:59:43.418Z,40.07
2023-06-07T18:02:09.914Z,38.76
2023-06-07T18:04:36.363Z,39.31
2023-06-07T18:07:03.770Z,41.10
2023-06-07T18:09:30.474Z,38.75
2023-06-07T18:11:57.030Z,40.15
2023-06-07T18:14:23.624Z,41.22
2023-06-07T18:16:50.078Z,41.91
2023-06-07T18:19:16.523Z,43.93
2023-06-07T18:21:42.946Z,44.38
2023-06-07T18:24:09.460Z,45.01
2023-06-07T18:26:36.092Z,44.98
2023-06-07T18:29:02.529Z,45.09
2023-06-07T18:31:29.058Z,44.76
2023-06-07T18:33:55.590Z,44.72
2023-06-07T18:36:22.505Z,44.30
2023-06-07T18:38:48.908Z,44.19
2023-06-07T18:41:15.664Z,44.28
2023-06-07T18:43:42.210Z,44.23
2023-06-07T18:46:09.125Z,44.16
2023-06-07T18:48:35.697Z,44.08
2023-06-07T18:51:02.324Z,43.87
2023-06-07T18:53:28.717Z,44.30
2023-06-07T18:55:55.422Z,44.36
2023-06-07T18:58:23.509Z,44.16
2023-06-07T19:00:50.826Z,44.21
2023-06-07T19:03:17.478Z,43.88
2023-06-07T19:05:44.033Z,43.85
2023-06-07T19:08:10.457Z,43.64
2023-06-07T19:10:36.913Z,43.69
2023-06-07T19:13:03.310Z,44.04
2023-06-07T19:15:29.744Z,44.93
2023-06-07T19:17:56.398Z,44.67
2023-06-07T19:20:23.064Z,44.63
2023-06-07T19:22:49.599Z,44.58
2023-06-07T19:25:16.305Z,45.50
2023-06-07T19:27:42.954Z,45.78
2023-06-07T19:30:09.900Z,45.54
2023-06-07T19:32:36.487Z,45.40
2023-06-07T19:35:05.270Z,45.75
2023-06-07T19:37:31.943Z,45.66
2023-06-07T19:39:58.474Z,45.62
2023-06-07T19:42:24.940Z,45.85
2023-06-07T19:44:51.461Z,45.65
2023-06-07T19:47:17.939Z,45.69
2023-06-07T19:49:44.469Z,46.19
2023-06-07T19:52:11.201Z,46.30
2023-06-07T19:54:37.710Z,46.30
2023-06-07T19:57:04.562Z,46.03
2023-06-07T19:59:30.981Z,45.65
2023-06-07T20:01:57.439Z,45.74
2023-06-07T20:04:24.100Z,45.78
2023-06-07T20:06:50.572Z,45.86
2023-06-07T20:09:16.998Z,45.53
2023-06-07T20:11:43.634Z,45.93
2023-06-07T20:14:10.116Z,45.53
2023-06-07T20:16:36.985Z,46.07
2023-06-07T20:19:03.494Z,46.40
2023-06-07T20:21:31.231Z,45.85
2023-06-07T20:23:57.627Z,46.11
2023-06-07T20:26:24.112Z,45.82
2023-06-07T20:28:50.869Z,45.91
2023-06-07T20:31:19.550Z,45.78
2023-06-07T20:33:48.098Z,45.96
2023-06-07T20:36:16.432Z,46.46
2023-06-07T20:38:43.609Z,46.53
2023-06-07T20:41:10.747Z,46.57
2023-06-07T20:43:38.007Z,47.62
2023-06-07T20:46:05.250Z,46.89
2023-06-07T20:48:32.260Z,46.82
2023-06-07T20:50:59.442Z,46.48
2023-06-07T20:53:26.666Z,46.90
2023-06-07T20:55:53.968Z,46.33
2023-06-07T20:58:22.074Z,46.46
2023-06-07T21:00:48.875Z,47.43
2023-06-07T21:03:15.543Z,46.62
2023-06-07T21:05:42.342Z,46.94
2023-06-07T21:08:08.733Z,47.19
2023-06-07T21:10:36.043Z,46.84
2023-06-07T21:13:02.682Z,46.81
2023-06-07T21:15:29.102Z,47.84
2023-06-07T21:17:55.588Z,48.19
2023-06-07T21:20:23.095Z,47.87
2023-06-07T21:22:49.718Z,47.63
2023-06-07T21:25:16.204Z,47.19
2023-06-07T21:27:42.987Z,47.11
2023-06-07T21:30:09.738Z,47.41
2023-06-07T21:32:36.702Z,47.34
2023-06-07T21:35:03.130Z,47.45
2023-06-07T21:37:30.158Z,47.04
2023-06-07T21:39:56.736Z,46.96
2023-06-07T21:42:23.284Z,47.54
2023-06-07T21:44:49.707Z,48.23
2023-06-07T21:47:16.273Z,48.42
2023-06-07T21:49:42.683Z,48.08
2023-06-07T21:52:09.876Z,47.58
2023-06-07T21:54:36.251Z,47.44
2023-06-07T21:57:03.092Z,48.19
2023-06-07T21:59:29.764Z,48.40
2023-06-07T22:01:56.273Z,48.10
2023-06-07T22:04:22.712Z,47.99
2023-06-07T22:06:49.223Z,48.15
2023-06-07T22:09:15.674Z,48.45
2023-06-07T22:11:42.625Z,48.43
2023-06-07T22:14:09.249Z,49.25
2023-06-07T22:16:35.681Z,48.98
2023-06-07T22:19:02.724Z,48.79
2023-06-07T22:21:29.702Z,48.69
2023-06-07T22:23:56.173Z,48.67
2023-06-07T22:26:22.898Z,48.38
2023-06-07T22:28:49.413Z,49.10
2023-06-07T22:31:16.131Z,48.91
2023-06-07T22:33:42.597Z,48.36
2023-06-07T22:36:10.012Z,48.51
2023-06-07T22:38:37.744Z,48.74
2023-06-07T22:41:04.682Z,48.72
2023-06-07T22:43:31.179Z,48.32
2023-06-07T22:45:58.535Z,48.38
2023-06-07T22:48:25.067Z,48.06
2023-06-07T22:50:51.602Z,48.57
2023-06-07T22:53:20.218Z,49.01
2023-06-07T22:55:46.714Z,48.49
2023-06-07T22:58:13.675Z,48.47
2023-06-07T23:00:40.096Z,48.66
2023-06-07T23:03:08.027Z,48.93
2023-06-07T23:05:34.899Z,48.68
2023-06-07T23:08:01.374Z,48.75
2023-06-07T23:10:31.753Z,48.77
2023-06-07T23:13:01.416Z,48.85
2023-06-07T23:15:27.845Z,48.56
2023-06-07T23:17:54.457Z,49.05
2023-06-07T23:20:21.306Z,48.76
2023-06-07T23:22:47.880Z,49.25
2023-06-07T23:25:14.300Z,49.09
2023-06-07T23:27:41.441Z,48.76
2023-06-07T23:30:08.240Z,48.84
2023-06-07T23:32:35.297Z,48.95
2023-06-07T23:35:01.771Z,49.08
2023-06-07T23:37:28.241Z,49.55
2023-06-07T23:39:54.706Z,49.30
2023-06-07T23:42:21.145Z,49.01
2023-06-07T23:44:48.090Z,48.71
2023-06-07T23:47:15.228Z,48.92
2023-06-07T23:49:41.595Z,48.89
2023-06-07T23:52:09.329Z,48.92
2023-06-07T23:54:36.160Z,49.34
2023-06-07T23:57:02.651Z,49.43
2023-06-07T23:59:30.079Z,49.70
